sensor_id;sensor_type;location;lat;lon;timestamp;P1;durP1;ratioP1;P2;durP2;ratioP2
27706;SDS011;36332;51.384;0.040;2023-08-08T00:00:44;6.40;;;2.33;;
27706;SDS011;36332;51.384;0.040;2023-08-08T00:03:12;5.63;;;2.05;;
27706;SDS011;36332;51.384;0.040;2023-08-08T00:05:41;3.47;;;2.10;;
27706;SDS011;36332;51.384;0.040;2023-08-08T00:08:10;8.63;;;2.00;;
27706;SDS011;36332;51.384;0.040;2023-08-08T00:10:38;4.78;;;2.28;;
27706;SDS011;36332;51.384;0.040;2023-08-08T00:13:06;5.63;;;2.00;;
27706;SDS011;36332;51.384;0.040;2023-08-08T00:15:35;7.18;;;2.25;;
27706;SDS011;36332;51.384;0.040;2023-08-08T00:18:03;6.38;;;2.65;;
27706;SDS011;36332;51.384;0.040;2023-08-08T00:20:32;7.25;;;2.20;;
27706;SDS011;36332;51.384;0.040;2023-08-08T00:23:00;8.48;;;1.83;;
27706;SDS011;36332;51.384;0.040;2023-08-08T00:25:28;7.65;;;2.15;;
27706;SDS011;36332;51.384;0.040;2023-08-08T00:27:56;4.53;;;2.17;;
27706;SDS011;36332;51.384;0.040;2023-08-08T00:30:24;10.52;;;2.10;;
27706;SDS011;36332;51.384;0.040;2023-08-08T00:32:52;6.05;;;2.28;;
27706;SDS011;36332;51.384;0.040;2023-08-08T00:35:20;7.15;;;2.03;;
27706;SDS011;36332;51.384;0.040;2023-08-08T00:37:48;5.75;;;2.45;;
27706;SDS011;36332;51.384;0.040;2023-08-08T00:40:18;4.72;;;2.53;;
27706;SDS011;36332;51.384;0.040;2023-08-08T00:42:46;11.07;;;3.30;;
27706;SDS011;36332;51.384;0.040;2023-08-08T00:45:14;6.00;;;2.40;;
27706;SDS011;36332;51.384;0.040;2023-08-08T00:47:42;8.45;;;2.40;;
27706;SDS011;36332;51.384;0.040;2023-08-08T00:50:10;8.50;;;2.60;;
27706;SDS011;36332;51.384;0.040;2023-08-08T00:52:41;4.60;;;2.25;;
27706;SDS011;36332;51.384;0.040;2023-08-08T00:55:10;5.43;;;2.70;;
27706;SDS011;36332;51.384;0.040;2023-08-08T00:57:38;3.13;;;2.05;;
27706;SDS011;36332;51.384;0.040;2023-08-08T01:00:07;4.32;;;2.08;;
27706;SDS011;36332;51.384;0.040;2023-08-08T01:02:39;5.75;;;2.08;;
27706;SDS011;36332;51.384;0.040;2023-08-08T01:05:07;6.93;;;2.85;;
27706;SDS011;36332;51.384;0.040;2023-08-08T01:07:55;5.53;;;2.17;;
27706;SDS011;36332;51.384;0.040;2023-08-08T01:10:31;7.25;;;2.70;;
27706;SDS011;36332;51.384;0.040;2023-08-08T01:13:17;5.15;;;2.03;;
27706;SDS011;36332;51.384;0.040;2023-08-08T01:15:48;13.27;;;2.50;;
27706;SDS011;36332;51.384;0.040;2023-08-08T01:18:16;4.00;;;2.40;;
27706;SDS011;36332;51.384;0.040;2023-08-08T01:20:46;7.20;;;2.28;;
27706;SDS011;36332;51.384;0.040;2023-08-08T01:25:42;9.80;;;2.13;;
27706;SDS011;36332;51.384;0.040;2023-08-08T01:28:11;5.63;;;2.20;;
27706;SDS011;36332;51.384;0.040;2023-08-08T01:30:39;4.38;;;2.35;;
27706;SDS011;36332;51.384;0.040;2023-08-08T01:33:09;3.30;;;2.15;;
27706;SDS011;36332;51.384;0.040;2023-08-08T01:35:37;6.95;;;2.40;;
27706;SDS011;36332;51.384;0.040;2023-08-08T01:38:30;6.10;;;1.90;;
27706;SDS011;36332;51.384;0.040;2023-08-08T01:41:02;4.03;;;1.95;;
27706;SDS011;36332;51.384;0.040;2023-08-08T01:43:32;7.55;;;2.00;;
27706;SDS011;36332;51.384;0.040;2023-08-08T01:46:00;3.38;;;2.00;;
27706;SDS011;36332;51.384;0.040;2023-08-08T01:48:30;7.50;;;2.40;;
27706;SDS011;36332;51.384;0.040;2023-08-08T01:50:59;4.85;;;2.45;;
27706;SDS011;36332;51.384;0.040;2023-08-08T01:53:27;13.32;;;3.22;;
27706;SDS011;36332;51.384;0.040;2023-08-08T01:55:55;4.38;;;2.00;;
27706;SDS011;36332;51.384;0.040;2023-08-08T01:58:23;4.43;;;2.38;;
27706;SDS011;36332;51.384;0.040;2023-08-08T02:00:51;6.03;;;1.83;;
27706;SDS011;36332;51.384;0.040;2023-08-08T02:03:19;9.73;;;2.17;;
27706;SDS011;36332;51.384;0.040;2023-08-08T02:05:47;5.53;;;2.17;;
27706;SDS011;36332;51.384;0.040;2023-08-08T02:08:15;5.22;;;2.00;;
27706;SDS011;36332;51.384;0.040;2023-08-08T02:10:43;7.05;;;2.00;;
27706;SDS011;36332;51.384;0.040;2023-08-08T02:13:11;6.25;;;2.70;;
27706;SDS011;36332;51.384;0.040;2023-08-08T02:15:39;8.25;;;2.80;;
27706;SDS011;36332;51.384;0.040;2023-08-08T02:18:07;7.70;;;2.30;;
27706;SDS011;36332;51.384;0.040;2023-08-08T02:20:37;8.15;;;2.50;;
27706;SDS011;36332;51.384;0.040;2023-08-08T02:23:04;6.10;;;2.00;;
27706;SDS011;36332;51.384;0.040;2023-08-08T02:25:32;5.97;;;2.10;;
27706;SDS011;36332;51.384;0.040;2023-08-08T02:28:00;5.50;;;1.92;;
27706;SDS011;36332;51.384;0.040;2023-08-08T02:30:28;5.20;;;2.30;;
27706;SDS011;36332;51.384;0.040;2023-08-08T02:32:56;4.18;;;1.70;;
27706;SDS011;36332;51.384;0.040;2023-08-08T02:35:26;4.05;;;2.38;;
27706;SDS011;36332;51.384;0.040;2023-08-08T02:37:53;2.97;;;2.10;;
27706;SDS011;36332;51.384;0.040;2023-08-08T02:40:21;5.45;;;2.00;;
27706;SDS011;36332;51.384;0.040;2023-08-08T02:42:54;3.63;;;1.90;;
27706;SDS011;36332;51.384;0.040;2023-08-08T02:45:22;4.10;;;2.10;;
27706;SDS011;36332;51.384;0.040;2023-08-08T02:47:50;7.82;;;1.90;;
27706;SDS011;36332;51.384;0.040;2023-08-08T02:50:18;5.07;;;1.80;;
27706;SDS011;36332;51.384;0.040;2023-08-08T02:52:46;5.68;;;2.17;;
27706;SDS011;36332;51.384;0.040;2023-08-08T02:55:14;7.03;;;2.55;;
27706;SDS011;36332;51.384;0.040;2023-08-08T02:57:47;5.70;;;2.28;;
27706;SDS011;36332;51.384;0.040;2023-08-08T03:00:15;7.57;;;2.50;;
27706;SDS011;36332;51.384;0.040;2023-08-08T03:02:48;3.15;;;1.95;;
27706;SDS011;36332;51.384;0.040;2023-08-08T03:05:16;5.45;;;2.03;;
27706;SDS011;36332;51.384;0.040;2023-08-08T03:07:44;5.05;;;1.95;;
27706;SDS011;36332;51.384;0.040;2023-08-08T03:10:13;5.80;;;2.13;;
27706;SDS011;36332;51.384;0.040;2023-08-08T03:12:42;5.05;;;2.50;;
27706;SDS011;36332;51.384;0.040;2023-08-08T03:15:10;7.55;;;2.22;;
27706;SDS011;36332;51.384;0.040;2023-08-08T03:17:39;5.80;;;2.45;;
27706;SDS011;36332;51.384;0.040;2023-08-08T03:20:08;3.03;;;1.92;;
27706;SDS011;36332;51.384;0.040;2023-08-08T03:22:39;6.25;;;2.13;;
27706;SDS011;36332;51.384;0.040;2023-08-08T03:25:08;5.68;;;2.20;;
27706;SDS011;36332;51.384;0.040;2023-08-08T03:27:37;9.02;;;2.35;;
27706;SDS011;36332;51.384;0.040;2023-08-08T03:30:06;4.75;;;2.10;;
27706;SDS011;36332;51.384;0.040;2023-08-08T03:32:40;8.13;;;1.88;;
27706;SDS011;36332;51.384;0.040;2023-08-08T03:35:08;7.55;;;1.88;;
27706;SDS011;36332;51.384;0.040;2023-08-08T03:37:41;5.32;;;2.13;;
27706;SDS011;36332;51.384;0.040;2023-08-08T03:40:09;3.97;;;2.03;;
27706;SDS011;36332;51.384;0.040;2023-08-08T03:42:39;9.60;;;2.08;;
27706;SDS011;36332;51.384;0.040;2023-08-08T03:45:07;4.18;;;2.47;;
27706;SDS011;36332;51.384;0.040;2023-08-08T03:47:36;5.63;;;2.33;;
27706;SDS011;36332;51.384;0.040;2023-08-08T03:50:05;7.80;;;2.30;;
27706;SDS011;36332;51.384;0.040;2023-08-08T03:52:34;4.18;;;2.30;;
27706;SDS011;36332;51.384;0.040;2023-08-08T03:55:08;6.35;;;1.80;;
27706;SDS011;36332;51.384;0.040;2023-08-08T03:57:38;5.10;;;1.95;;
27706;SDS011;36332;51.384;0.040;2023-08-08T04:00:06;5.00;;;1.80;;
27706;SDS011;36332;51.384;0.040;2023-08-08T04:02:42;6.10;;;1.98;;
27706;SDS011;36332;51.384;0.040;2023-08-08T04:05:10;3.78;;;2.13;;
27706;SDS011;36332;51.384;0.040;2023-08-08T04:07:39;3.50;;;2.40;;
27706;SDS011;36332;51.384;0.040;2023-08-08T04:10:07;3.80;;;1.90;;
27706;SDS011;36332;51.384;0.040;2023-08-08T04:12:35;5.60;;;1.98;;
27706;SDS011;36332;51.384;0.040;2023-08-08T04:15:03;6.88;;;2.00;;
27706;SDS011;36332;51.384;0.040;2023-08-08T04:17:32;4.00;;;1.80;;
27706;SDS011;36332;51.384;0.040;2023-08-08T04:20:00;4.75;;;2.00;;
27706;SDS011;36332;51.384;0.040;2023-08-08T04:22:29;5.78;;;2.45;;
27706;SDS011;36332;51.384;0.040;2023-08-08T04:24:56;4.70;;;2.25;;
27706;SDS011;36332;51.384;0.040;2023-08-08T04:27:25;5.75;;;2.35;;
27706;SDS011;36332;51.384;0.040;2023-08-08T04:29:53;5.85;;;2.63;;
27706;SDS011;36332;51.384;0.040;2023-08-08T04:32:21;6.88;;;2.22;;
27706;SDS011;36332;51.384;0.040;2023-08-08T04:34:48;5.90;;;2.60;;
27706;SDS011;36332;51.384;0.040;2023-08-08T04:37:17;5.55;;;2.22;;
27706;SDS011;36332;51.384;0.040;2023-08-08T04:39:44;6.47;;;2.10;;
27706;SDS011;36332;51.384;0.040;2023-08-08T04:42:13;4.28;;;1.98;;
27706;SDS011;36332;51.384;0.040;2023-08-08T04:44:41;5.60;;;2.15;;
27706;SDS011;36332;51.384;0.040;2023-08-08T04:47:09;5.57;;;2.30;;
27706;SDS011;36332;51.384;0.040;2023-08-08T04:49:37;6.80;;;2.22;;
27706;SDS011;36332;51.384;0.040;2023-08-08T04:52:05;6.65;;;2.67;;
27706;SDS011;36332;51.384;0.040;2023-08-08T04:54:33;4.95;;;2.55;;
27706;SDS011;36332;51.384;0.040;2023-08-08T04:57:01;4.13;;;1.98;;
27706;SDS011;36332;51.384;0.040;2023-08-08T04:59:29;4.15;;;2.03;;
27706;SDS011;36332;51.384;0.040;2023-08-08T05:01:57;6.13;;;2.20;;
27706;SDS011;36332;51.384;0.040;2023-08-08T05:04:25;4.32;;;2.17;;
27706;SDS011;36332;51.384;0.040;2023-08-08T05:06:53;6.53;;;2.20;;
27706;SDS011;36332;51.384;0.040;2023-08-08T05:09:21;7.38;;;2.13;;
27706;SDS011;36332;51.384;0.040;2023-08-08T05:11:53;7.72;;;1.92;;
27706;SDS011;36332;51.384;0.040;2023-08-08T05:14:21;7.38;;;2.65;;
27706;SDS011;36332;51.384;0.040;2023-08-08T05:16:49;5.65;;;2.55;;
27706;SDS011;36332;51.384;0.040;2023-08-08T05:19:17;4.90;;;2.03;;
27706;SDS011;36332;51.384;0.040;2023-08-08T05:21:46;7.70;;;2.22;;
27706;SDS011;36332;51.384;0.040;2023-08-08T05:24:16;9.50;;;2.88;;
27706;SDS011;36332;51.384;0.040;2023-08-08T05:26:44;9.82;;;2.95;;
27706;SDS011;36332;51.384;0.040;2023-08-08T05:29:12;5.90;;;2.45;;
27706;SDS011;36332;51.384;0.040;2023-08-08T05:31:40;8.27;;;2.22;;
27706;SDS011;36332;51.384;0.040;2023-08-08T05:34:08;4.25;;;2.03;;
27706;SDS011;36332;51.384;0.040;2023-08-08T05:36:36;6.70;;;2.20;;
27706;SDS011;36332;51.384;0.040;2023-08-08T05:39:04;9.38;;;2.30;;
27706;SDS011;36332;51.384;0.040;2023-08-08T05:41:33;8.63;;;2.08;;
27706;SDS011;36332;51.384;0.040;2023-08-08T05:44:01;4.25;;;1.92;;
27706;SDS011;36332;51.384;0.040;2023-08-08T05:46:29;8.18;;;2.72;;
27706;SDS011;36332;51.384;0.040;2023-08-08T05:48:57;9.70;;;3.08;;
27706;SDS011;36332;51.384;0.040;2023-08-08T05:51:25;6.93;;;2.03;;
27706;SDS011;36332;51.384;0.040;2023-08-08T05:53:53;9.90;;;2.65;;
27706;SDS011;36332;51.384;0.040;2023-08-08T05:56:21;7.07;;;2.03;;
27706;SDS011;36332;51.384;0.040;2023-08-08T05:58:49;8.65;;;2.78;;
27706;SDS011;36332;51.384;0.040;2023-08-08T06:01:17;11.52;;;2.97;;
27706;SDS011;36332;51.384;0.040;2023-08-08T06:03:45;9.45;;;2.90;;
27706;SDS011;36332;51.384;0.040;2023-08-08T06:06:13;10.60;;;2.83;;
27706;SDS011;36332;51.384;0.040;2023-08-08T06:08:41;5.45;;;2.90;;
27706;SDS011;36332;51.384;0.040;2023-08-08T06:11:09;9.05;;;2.70;;
27706;SDS011;36332;51.384;0.040;2023-08-08T06:13:38;18.10;;;3.80;;
27706;SDS011;36332;51.384;0.040;2023-08-08T06:16:08;7.72;;;3.05;;
27706;SDS011;36332;51.384;0.040;2023-08-08T06:18:36;8.02;;;3.83;;
27706;SDS011;36332;51.384;0.040;2023-08-08T06:21:04;7.85;;;2.60;;
27706;SDS011;36332;51.384;0.040;2023-08-08T06:23:32;11.07;;;3.55;;
27706;SDS011;36332;51.384;0.040;2023-08-08T06:26:00;9.82;;;3.13;;
27706;SDS011;36332;51.384;0.040;2023-08-08T06:28:28;5.57;;;2.85;;
27706;SDS011;36332;51.384;0.040;2023-08-08T06:30:57;5.05;;;2.38;;
27706;SDS011;36332;51.384;0.040;2023-08-08T06:33:25;7.25;;;2.83;;
27706;SDS011;36332;51.384;0.040;2023-08-08T06:35:53;11.77;;;3.05;;
27706;SDS011;36332;51.384;0.040;2023-08-08T06:38:20;8.95;;;3.00;;
27706;SDS011;36332;51.384;0.040;2023-08-08T06:40:49;7.80;;;3.10;;
27706;SDS011;36332;51.384;0.040;2023-08-08T06:43:17;6.15;;;3.38;;
27706;SDS011;36332;51.384;0.040;2023-08-08T06:45:45;5.38;;;2.97;;
27706;SDS011;36332;51.384;0.040;2023-08-08T06:48:13;9.32;;;3.65;;
27706;SDS011;36332;51.384;0.040;2023-08-08T06:50:40;6.97;;;3.55;;
27706;SDS011;36332;51.384;0.040;2023-08-08T06:53:08;4.80;;;3.58;;
27706;SDS011;36332;51.384;0.040;2023-08-08T06:55:36;6.32;;;2.78;;
27706;SDS011;36332;51.384;0.040;2023-08-08T06:58:04;13.77;;;2.92;;
27706;SDS011;36332;51.384;0.040;2023-08-08T07:00:31;6.93;;;2.83;;
27706;SDS011;36332;51.384;0.040;2023-08-08T07:03:00;5.68;;;2.92;;
27706;SDS011;36332;51.384;0.040;2023-08-08T07:05:28;4.60;;;2.30;;
27706;SDS011;36332;51.384;0.040;2023-08-08T07:07:57;7.88;;;3.00;;
27706;SDS011;36332;51.384;0.040;2023-08-08T07:10:24;13.77;;;3.67;;
27706;SDS011;36332;51.384;0.040;2023-08-08T07:12:53;3.25;;;2.95;;
27706;SDS011;36332;51.384;0.040;2023-08-08T07:15:21;5.85;;;2.90;;
27706;SDS011;36332;51.384;0.040;2023-08-08T07:17:49;10.57;;;3.25;;
27706;SDS011;36332;51.384;0.040;2023-08-08T07:20:17;4.00;;;2.75;;
27706;SDS011;36332;51.384;0.040;2023-08-08T07:22:46;4.35;;;2.58;;
27706;SDS011;36332;51.384;0.040;2023-08-08T07:25:14;7.20;;;2.75;;
27706;SDS011;36332;51.384;0.040;2023-08-08T07:27:42;5.88;;;3.25;;
27706;SDS011;36332;51.384;0.040;2023-08-08T07:30:10;7.82;;;3.13;;
27706;SDS011;36332;51.384;0.040;2023-08-08T07:32:39;5.47;;;2.90;;
27706;SDS011;36332;51.384;0.040;2023-08-08T07:35:07;10.45;;;3.55;;
27706;SDS011;36332;51.384;0.040;2023-08-08T07:37:35;7.75;;;3.47;;
27706;SDS011;36332;51.384;0.040;2023-08-08T07:40:06;6.88;;;3.42;;
27706;SDS011;36332;51.384;0.040;2023-08-08T07:42:41;7.07;;;3.72;;
27706;SDS011;36332;51.384;0.040;2023-08-08T07:45:09;5.55;;;3.13;;
27706;SDS011;36332;51.384;0.040;2023-08-08T07:47:37;7.50;;;2.95;;
27706;SDS011;36332;51.384;0.040;2023-08-08T07:50:05;5.28;;;2.45;;
27706;SDS011;36332;51.384;0.040;2023-08-08T07:52:37;2.97;;;1.77;;
27706;SDS011;36332;51.384;0.040;2023-08-08T07:55:06;5.40;;;1.70;;
27706;SDS011;36332;51.384;0.040;2023-08-08T07:57:33;3.45;;;1.42;;
27706;SDS011;36332;51.384;0.040;2023-08-08T08:00:02;8.20;;;1.70;;
27706;SDS011;36332;51.384;0.040;2023-08-08T08:02:39;4.65;;;2.20;;
27706;SDS011;36332;51.384;0.040;2023-08-08T08:05:09;5.07;;;2.22;;
27706;SDS011;36332;51.384;0.040;2023-08-08T08:07:37;8.48;;;2.30;;
27706;SDS011;36332;51.384;0.040;2023-08-08T08:10:07;6.40;;;2.15;;
27706;SDS011;36332;51.384;0.040;2023-08-08T08:12:36;6.80;;;1.75;;
27706;SDS011;36332;51.384;0.040;2023-08-08T08:15:04;11.15;;;1.80;;
27706;SDS011;36332;51.384;0.040;2023-08-08T08:17:33;8.25;;;1.60;;
27706;SDS011;36332;51.384;0.040;2023-08-08T08:20:01;3.85;;;1.45;;
27706;SDS011;36332;51.384;0.040;2023-08-08T08:22:32;3.83;;;1.58;;
27706;SDS011;36332;51.384;0.040;2023-08-08T08:25:00;2.70;;;1.85;;
27706;SDS011;36332;51.384;0.040;2023-08-08T08:27:29;2.58;;;1.98;;
27706;SDS011;36332;51.384;0.040;2023-08-08T08:29:57;4.05;;;1.70;;
27706;SDS011;36332;51.384;0.040;2023-08-08T08:32:25;6.00;;;2.53;;
27706;SDS011;36332;51.384;0.040;2023-08-08T08:34:53;2.05;;;1.77;;
27706;SDS011;36332;51.384;0.040;2023-08-08T08:37:21;6.03;;;2.10;;
27706;SDS011;36332;51.384;0.040;2023-08-08T08:39:49;4.38;;;2.05;;
27706;SDS011;36332;51.384;0.040;2023-08-08T08:42:17;3.17;;;1.90;;
27706;SDS011;36332;51.384;0.040;2023-08-08T08:44:46;3.25;;;1.90;;
27706;SDS011;36332;51.384;0.040;2023-08-08T08:47:15;2.55;;;1.92;;
27706;SDS011;36332;51.384;0.040;2023-08-08T08:49:47;2.83;;;1.73;;
27706;SDS011;36332;51.384;0.040;2023-08-08T08:52:15;3.60;;;1.73;;
27706;SDS011;36332;51.384;0.040;2023-08-08T08:54:44;6.15;;;2.00;;
27706;SDS011;36332;51.384;0.040;2023-08-08T08:57:12;5.57;;;2.20;;
27706;SDS011;36332;51.384;0.040;2023-08-08T08:59:40;2.97;;;1.85;;
27706;SDS011;36332;51.384;0.040;2023-08-08T09:02:09;2.65;;;1.77;;
27706;SDS011;36332;51.384;0.040;2023-08-08T09:04:39;4.68;;;2.13;;
27706;SDS011;36332;51.384;0.040;2023-08-08T09:07:07;4.47;;;1.70;;
27706;SDS011;36332;51.384;0.040;2023-08-08T09:09:37;4.18;;;1.92;;
27706;SDS011;36332;51.384;0.040;2023-08-08T09:12:06;4.00;;;1.92;;
27706;SDS011;36332;51.384;0.040;2023-08-08T09:14:34;4.80;;;1.63;;
27706;SDS011;36332;51.384;0.040;2023-08-08T09:17:12;4.80;;;2.25;;
27706;SDS011;36332;51.384;0.040;2023-08-08T09:19:43;2.73;;;1.60;;
27706;SDS011;36332;51.384;0.040;2023-08-08T09:22:12;3.25;;;1.98;;
27706;SDS011;36332;51.384;0.040;2023-08-08T09:24:41;3.63;;;1.77;;
27706;SDS011;36332;51.384;0.040;2023-08-08T09:27:09;3.30;;;2.03;;
27706;SDS011;36332;51.384;0.040;2023-08-08T09:29:38;3.58;;;2.00;;
27706;SDS011;36332;51.384;0.040;2023-08-08T09:32:06;4.10;;;1.75;;
27706;SDS011;36332;51.384;0.040;2023-08-08T09:34:34;5.22;;;1.77;;
27706;SDS011;36332;51.384;0.040;2023-08-08T09:37:02;4.15;;;2.05;;
27706;SDS011;36332;51.384;0.040;2023-08-08T09:39:32;4.22;;;2.28;;
27706;SDS011;36332;51.384;0.040;2023-08-08T09:42:01;2.22;;;1.83;;
27706;SDS011;36332;51.384;0.040;2023-08-08T09:44:31;4.20;;;2.05;;
27706;SDS011;36332;51.384;0.040;2023-08-08T09:47:02;2.45;;;1.80;;
27706;SDS011;36332;51.384;0.040;2023-08-08T09:49:30;3.42;;;2.30;;
27706;SDS011;36332;51.384;0.040;2023-08-08T09:52:02;3.58;;;2.17;;
27706;SDS011;36332;51.384;0.040;2023-08-08T09:54:30;3.17;;;2.25;;
27706;SDS011;36332;51.384;0.040;2023-08-08T09:57:00;3.30;;;2.22;;
27706;SDS011;36332;51.384;0.040;2023-08-08T09:59:28;5.80;;;2.53;;
27706;SDS011;36332;51.384;0.040;2023-08-08T10:01:57;3.28;;;2.20;;
27706;SDS011;36332;51.384;0.040;2023-08-08T10:04:25;3.60;;;2.60;;
27706;SDS011;36332;51.384;0.040;2023-08-08T10:06:53;5.88;;;2.30;;
27706;SDS011;36332;51.384;0.040;2023-08-08T10:09:21;2.22;;;1.73;;
27706;SDS011;36332;51.384;0.040;2023-08-08T10:11:49;4.10;;;2.20;;
27706;SDS011;36332;51.384;0.040;2023-08-08T10:14:17;5.30;;;2.10;;
27706;SDS011;36332;51.384;0.040;2023-08-08T10:16:45;2.70;;;1.65;;
27706;SDS011;36332;51.384;0.040;2023-08-08T10:19:21;2.30;;;1.40;;
27706;SDS011;36332;51.384;0.040;2023-08-08T10:21:55;2.03;;;1.50;;
27706;SDS011;36332;51.384;0.040;2023-08-08T10:24:32;1.35;;;1.23;;
27706;SDS011;36332;51.384;0.040;2023-08-08T10:27:03;1.50;;;1.15;;
27706;SDS011;36332;51.384;0.040;2023-08-08T10:29:32;2.33;;;1.38;;
27706;SDS011;36332;51.384;0.040;2023-08-08T10:32:05;1.10;;;1.00;;
27706;SDS011;36332;51.384;0.040;2023-08-08T10:34:40;1.33;;;1.23;;
27706;SDS011;36332;51.384;0.040;2023-08-08T10:37:14;1.75;;;1.00;;
27706;SDS011;36332;51.384;0.040;2023-08-08T10:42:46;3.15;;;1.25;;
27706;SDS011;36332;51.384;0.040;2023-08-08T10:45:14;1.50;;;1.17;;
27706;SDS011;36332;51.384;0.040;2023-08-08T10:47:44;1.60;;;1.20;;
27706;SDS011;36332;51.384;0.040;2023-08-08T10:50:13;1.88;;;1.50;;
27706;SDS011;36332;51.384;0.040;2023-08-08T10:55:20;2.72;;;1.73;;
27706;SDS011;36332;51.384;0.040;2023-08-08T10:58:10;2.47;;;2.08;;
27706;SDS011;36332;51.384;0.040;2023-08-08T11:00:42;2.42;;;2.20;;
27706;SDS011;36332;51.384;0.040;2023-08-08T11:03:12;2.63;;;1.90;;
27706;SDS011;36332;51.384;0.040;2023-08-08T11:05:40;4.55;;;2.50;;
27706;SDS011;36332;51.384;0.040;2023-08-08T11:08:11;3.10;;;1.90;;
27706;SDS011;36332;51.384;0.040;2023-08-08T11:10:40;2.35;;;2.08;;
27706;SDS011;36332;51.384;0.040;2023-08-08T11:13:08;2.47;;;2.03;;
27706;SDS011;36332;51.384;0.040;2023-08-08T11:15:36;2.90;;;1.92;;
27706;SDS011;36332;51.384;0.040;2023-08-08T11:18:06;3.10;;;2.10;;
27706;SDS011;36332;51.384;0.040;2023-08-08T11:20:35;3.33;;;1.98;;
27706;SDS011;36332;51.384;0.040;2023-08-08T11:23:04;2.85;;;2.05;;
27706;SDS011;36332;51.384;0.040;2023-08-08T11:25:36;4.97;;;2.25;;
27706;SDS011;36332;51.384;0.040;2023-08-08T11:28:04;3.90;;;2.08;;
27706;SDS011;36332;51.384;0.040;2023-08-08T11:30:37;2.63;;;2.00;;
27706;SDS011;36332;51.384;0.040;2023-08-08T11:33:06;4.38;;;2.75;;
27706;SDS011;36332;51.384;0.040;2023-08-08T11:35:37;2.97;;;2.22;;
27706;SDS011;36332;51.384;0.040;2023-08-08T11:38:05;2.35;;;2.10;;
27706;SDS011;36332;51.384;0.040;2023-08-08T11:40:34;4.65;;;2.28;;
27706;SDS011;36332;51.384;0.040;2023-08-08T11:43:03;3.30;;;2.63;;
27706;SDS011;36332;51.384;0.040;2023-08-08T11:45:31;4.45;;;2.85;;
27706;SDS011;36332;51.384;0.040;2023-08-08T11:47:59;3.58;;;2.63;;
27706;SDS011;36332;51.384;0.040;2023-08-08T11:50:27;3.00;;;2.67;;
27706;SDS011;36332;51.384;0.040;2023-08-08T11:52:56;4.00;;;2.88;;
27706;SDS011;36332;51.384;0.040;2023-08-08T11:55:28;4.88;;;2.65;;
27706;SDS011;36332;51.384;0.040;2023-08-08T11:57:56;5.40;;;2.70;;
27706;SDS011;36332;51.384;0.040;2023-08-08T12:00:28;6.30;;;2.85;;
27706;SDS011;36332;51.384;0.040;2023-08-08T12:02:58;9.35;;;3.22;;
27706;SDS011;36332;51.384;0.040;2023-08-08T12:05:29;5.53;;;2.50;;
27706;SDS011;36332;51.384;0.040;2023-08-08T12:07:58;6.63;;;3.63;;
27706;SDS011;36332;51.384;0.040;2023-08-08T12:10:26;5.25;;;3.33;;
27706;SDS011;36332;51.384;0.040;2023-08-08T12:12:54;4.53;;;3.05;;
27706;SDS011;36332;51.384;0.040;2023-08-08T12:15:29;4.43;;;3.30;;
27706;SDS011;36332;51.384;0.040;2023-08-08T12:18:02;6.82;;;3.60;;
27706;SDS011;36332;51.384;0.040;2023-08-08T12:20:30;7.70;;;4.03;;
27706;SDS011;36332;51.384;0.040;2023-08-08T12:22:59;5.88;;;3.28;;
27706;SDS011;36332;51.384;0.040;2023-08-08T12:25:27;3.58;;;3.08;;
27706;SDS011;36332;51.384;0.040;2023-08-08T12:27:55;3.45;;;2.53;;
27706;SDS011;36332;51.384;0.040;2023-08-08T12:30:23;5.38;;;2.45;;
27706;SDS011;36332;51.384;0.040;2023-08-08T12:32:50;2.55;;;2.08;;
27706;SDS011;36332;51.384;0.040;2023-08-08T12:35:18;4.78;;;2.03;;
27706;SDS011;36332;51.384;0.040;2023-08-08T12:37:47;3.17;;;1.92;;
27706;SDS011;36332;51.384;0.040;2023-08-08T12:40:15;3.38;;;2.13;;
27706;SDS011;36332;51.384;0.040;2023-08-08T12:42:43;8.15;;;1.92;;
27706;SDS011;36332;51.384;0.040;2023-08-08T12:45:11;1.65;;;1.38;;
27706;SDS011;36332;51.384;0.040;2023-08-08T12:47:38;2.83;;;1.45;;
27706;SDS011;36332;51.384;0.040;2023-08-08T12:50:06;2.75;;;1.30;;
27706;SDS011;36332;51.384;0.040;2023-08-08T12:52:35;1.33;;;1.17;;
27706;SDS011;36332;51.384;0.040;2023-08-08T12:55:03;1.63;;;1.00;;
27706;SDS011;36332;51.384;0.040;2023-08-08T12:57:32;1.02;;;0.90;;
27706;SDS011;36332;51.384;0.040;2023-08-08T13:00:00;3.40;;;0.95;;
27706;SDS011;36332;51.384;0.040;2023-08-08T13:02:28;1.40;;;1.10;;
27706;SDS011;36332;51.384;0.040;2023-08-08T13:04:56;0.70;;;0.70;;
27706;SDS011;36332;51.384;0.040;2023-08-08T13:07:24;0.95;;;0.85;;
27706;SDS011;36332;51.384;0.040;2023-08-08T13:09:52;5.30;;;1.00;;
27706;SDS011;36332;51.384;0.040;2023-08-08T13:12:21;2.28;;;0.80;;
27706;SDS011;36332;51.384;0.040;2023-08-08T13:14:50;2.53;;;1.08;;
27706;SDS011;36332;51.384;0.040;2023-08-08T13:17:18;1.55;;;0.90;;
27706;SDS011;36332;51.384;0.040;2023-08-08T13:19:46;4.65;;;1.30;;
27706;SDS011;36332;51.384;0.040;2023-08-08T13:22:14;1.65;;;1.10;;
27706;SDS011;36332;51.384;0.040;2023-08-08T13:24:42;2.63;;;1.40;;
27706;SDS011;36332;51.384;0.040;2023-08-08T13:27:09;3.60;;;1.25;;
27706;SDS011;36332;51.384;0.040;2023-08-08T13:29:38;5.25;;;1.60;;
27706;SDS011;36332;51.384;0.040;2023-08-08T13:32:06;1.67;;;1.58;;
27706;SDS011;36332;51.384;0.040;2023-08-08T13:34:34;1.45;;;1.27;;
27706;SDS011;36332;51.384;0.040;2023-08-08T13:37:01;3.47;;;1.35;;
27706;SDS011;36332;51.384;0.040;2023-08-08T13:39:30;3.33;;;1.48;;
27706;SDS011;36332;51.384;0.040;2023-08-08T13:41:58;2.03;;;1.65;;
27706;SDS011;36332;51.384;0.040;2023-08-08T13:44:26;1.80;;;1.40;;
27706;SDS011;36332;51.384;0.040;2023-08-08T13:46:55;3.15;;;1.45;;
27706;SDS011;36332;51.384;0.040;2023-08-08T13:49:24;4.50;;;1.83;;
27706;SDS011;36332;51.384;0.040;2023-08-08T13:51:53;4.35;;;2.50;;
27706;SDS011;36332;51.384;0.040;2023-08-08T13:54:21;3.97;;;2.05;;
27706;SDS011;36332;51.384;0.040;2023-08-08T13:56:49;4.47;;;2.58;;
27706;SDS011;36332;51.384;0.040;2023-08-08T13:59:17;5.10;;;2.15;;
27706;SDS011;36332;51.384;0.040;2023-08-08T14:01:45;6.35;;;2.50;;
27706;SDS011;36332;51.384;0.040;2023-08-08T14:04:13;6.07;;;2.72;;
27706;SDS011;36332;51.384;0.040;2023-08-08T14:06:42;7.82;;;2.70;;
27706;SDS011;36332;51.384;0.040;2023-08-08T14:09:10;6.15;;;2.33;;
27706;SDS011;36332;51.384;0.040;2023-08-08T14:11:40;5.80;;;2.88;;
27706;SDS011;36332;51.384;0.040;2023-08-08T14:14:07;6.43;;;2.97;;
27706;SDS011;36332;51.384;0.040;2023-08-08T14:16:35;4.88;;;2.50;;
27706;SDS011;36332;51.384;0.040;2023-08-08T14:19:03;7.82;;;2.75;;
27706;SDS011;36332;51.384;0.040;2023-08-08T14:21:31;5.47;;;3.25;;
27706;SDS011;36332;51.384;0.040;2023-08-08T14:23:59;3.97;;;2.53;;
27706;SDS011;36332;51.384;0.040;2023-08-08T14:26:28;9.90;;;2.90;;
27706;SDS011;36332;51.384;0.040;2023-08-08T14:28:56;6.07;;;2.65;;
27706;SDS011;36332;51.384;0.040;2023-08-08T14:31:24;7.82;;;2.55;;
27706;SDS011;36332;51.384;0.040;2023-08-08T14:33:53;6.15;;;2.95;;
27706;SDS011;36332;51.384;0.040;2023-08-08T14:36:20;7.20;;;2.90;;
27706;SDS011;36332;51.384;0.040;2023-08-08T14:38:48;6.70;;;2.63;;
27706;SDS011;36332;51.384;0.040;2023-08-08T14:41:16;4.00;;;1.88;;
27706;SDS011;36332;51.384;0.040;2023-08-08T14:43:44;5.38;;;2.20;;
27706;SDS011;36332;51.384;0.040;2023-08-08T14:46:12;2.50;;;1.70;;
27706;SDS011;36332;51.384;0.040;2023-08-08T14:48:40;2.97;;;1.67;;
27706;SDS011;36332;51.384;0.040;2023-08-08T14:51:09;3.63;;;1.55;;
27706;SDS011;36332;51.384;0.040;2023-08-08T14:53:36;2.95;;;1.20;;
27706;SDS011;36332;51.384;0.040;2023-08-08T14:56:04;3.60;;;1.27;;
27706;SDS011;36332;51.384;0.040;2023-08-08T14:58:32;1.63;;;1.45;;
27706;SDS011;36332;51.384;0.040;2023-08-08T15:01:01;2.55;;;1.90;;
27706;SDS011;36332;51.384;0.040;2023-08-08T15:03:29;4.75;;;1.70;;
27706;SDS011;36332;51.384;0.040;2023-08-08T15:05:57;2.25;;;1.50;;